createdAt,value
2022-12-04T00:00:42.291Z,95023.25
2022-12-04T00:03:10.056Z,95023.47
2022-12-04T00:05:37.796Z,95023.13
2022-12-04T00:08:05.620Z,95023.00
2022-12-04T00:10:34.833Z,95026.72
2022-12-04T00:13:02.532Z,95018.59
2022-12-04T00:15:30.194Z,95030.44
2022-12-04T00:17:57.883Z,95033.34
2022-12-04T00:20:27.468Z,95022.13
2022-12-04T00:22:55.146Z,95016.16
2022-12-04T00:25:23.291Z,95018.16
2022-12-04T00:27:52.336Z,95015.50
2022-12-04T00:30:20.002Z,95014.41
2022-12-04T00:32:47.702Z,95011.09
2022-12-04T00:35:15.535Z,95008.28
2022-12-04T00:37:43.267Z,95013.13
2022-12-04T00:40:11.784Z,95019.53
2022-12-04T00:42:39.504Z,95020.34
2022-12-04T00:45:09.603Z,95031.25
2022-12-04T00:47:37.310Z,95029.63
2022-12-04T00:50:06.322Z,95016.09
2022-12-04T00:52:34.007Z,95020.75
2022-12-04T00:55:01.689Z,95023.16
2022-12-04T00:57:29.377Z,95017.84
2022-12-04T00:59:57.443Z,95009.09
2022-12-04T01:02:26.715Z,95008.78
2022-12-04T01:04:54.382Z,95018.47
2022-12-04T01:07:22.072Z,95010.41
2022-12-04T01:09:49.771Z,95017.59
2022-12-04T01:12:20.756Z,95007.63
2022-12-04T01:14:48.903Z,95015.75
2022-12-04T01:17:16.941Z,95029.09
2022-12-04T01:19:45.940Z,95030.94
2022-12-04T01:22:13.630Z,95022.69
2022-12-04T01:24:41.421Z,95033.13
2022-12-04T01:27:09.349Z,95037.41
2022-12-04T01:29:37.075Z,95030.78
2022-12-04T01:32:07.721Z,95039.28
2022-12-04T01:34:35.409Z,95029.84
2022-12-04T01:37:04.544Z,95032.28
2022-12-04T01:39:32.220Z,95040.19
2022-12-04T01:42:00.186Z,95036.94
2022-12-04T01:44:28.155Z,95023.50
2022-12-04T01:47:00.173Z,95012.50
2022-12-04T01:49:35.100Z,95021.38
2022-12-04T01:52:10.176Z,95015.81
2022-12-04T01:54:42.199Z,95004.81
2022-12-04T01:57:14.743Z,95004.31
2022-12-04T01:59:48.591Z,94989.19
2022-12-04T02:02:19.694Z,94985.31
2022-12-04T02:04:48.006Z,94996.75
2022-12-04T02:07:17.601Z,95006.28
2022-12-04T02:09:46.108Z,95010.69
2022-12-04T02:12:21.528Z,95014.28
2022-12-04T02:14:53.333Z,95014.53
2022-12-04T02:17:27.341Z,95011.50
2022-12-04T02:20:11.731Z,95004.47
2022-12-04T02:22:59.623Z,94985.09
2022-12-04T02:25:35.962Z,94990.19
2022-12-04T02:28:11.131Z,94989.72
2022-12-04T02:30:42.328Z,94985.78
2022-12-04T02:33:18.843Z,94982.88
2022-12-04T02:35:49.055Z,94983.34
2022-12-04T02:38:23.357Z,94971.38
2022-12-04T02:40:58.224Z,94972.19
2022-12-04T02:43:31.140Z,94967.72
2022-12-04T02:46:02.383Z,94969.69
2022-12-04T02:48:34.337Z,94971.13
2022-12-04T02:51:02.989Z,94971.13
2022-12-04T02:53:36.485Z,94973.25
2022-12-04T02:56:09.972Z,94963.25
2022-12-04T02:58:46.587Z,94967.22
2022-12-04T03:01:21.264Z,94962.34
2022-12-04T03:03:52.516Z,94970.34
2022-12-04T03:06:22.556Z,94961.28
2022-12-04T03:08:56.073Z,94963.50
2022-12-04T03:11:27.577Z,94961.63
2022-12-04T03:14:00.986Z,94960.13
2022-12-04T03:16:33.267Z,94959.06
2022-12-04T03:19:11.259Z,94958.72
2022-12-04T03:21:43.548Z,94957.56
2022-12-04T03:24:16.733Z,94950.16
2022-12-04T03:26:48.556Z,94961.97
2022-12-04T03:29:22.345Z,94953.50
2022-12-04T03:31:56.645Z,94966.03
2022-12-04T03:34:29.057Z,94960.47
2022-12-04T03:37:00.399Z,94958.97
2022-12-04T03:39:35.874Z,94962.78
2022-12-04T03:42:07.670Z,94967.09
2022-12-04T03:44:49.102Z,94962.22
2022-12-04T03:47:21.125Z,94947.56
2022-12-04T03:49:53.518Z,94946.28
2022-12-04T03:52:25.814Z,94945.94
2022-12-04T03:54:57.862Z,94946.53
2022-12-04T03:57:31.409Z,94942.81
2022-12-04T04:00:07.042Z,94937.28
2022-12-04T04:02:38.788Z,94934.16
2022-12-04T04:05:10.937Z,94939.41
2022-12-04T04:07:42.927Z,94931.63
2022-12-04T04:10:15.464Z,94930.50
2022-12-04T04:13:09.243Z,94927.91
2022-12-04T04:16:01.246Z,94931.13
2022-12-04T04:18:48.858Z,94926.78
2022-12-04T04:21:39.765Z,94926.84
2022-12-04T04:24:17.537Z,94934.88
2022-12-04T04:26:48.376Z,94935.53
2022-12-04T04:29:16.478Z,94937.88
2022-12-04T04:31:53.342Z,94940.94
2022-12-04T04:34:28.086Z,94940.38
2022-12-04T04:37:01.010Z,94935.09
2022-12-04T04:39:35.427Z,94933.00
2022-12-04T04:42:10.914Z,94927.66
2022-12-04T04:44:42.394Z,94928.47
2022-12-04T04:47:17.702Z,94925.97
2022-12-04T04:49:48.528Z,94933.16
2022-12-04T04:52:18.568Z,94929.69
2022-12-04T04:54:48.143Z,94921.09
2022-12-04T04:57:26.930Z,94912.28
2022-12-04T04:59:54.857Z,94928.47
2022-12-04T05:02:26.687Z,94931.47
2022-12-04T05:04:55.328Z,94936.25
2022-12-04T05:07:23.014Z,94928.94
2022-12-04T05:09:50.715Z,94932.88
2022-12-04T05:12:18.391Z,94928.47
2022-12-04T05:14:50.394Z,94925.91
2022-12-04T05:17:18.513Z,94931.47
2022-12-04T05:19:57.677Z,94916.91
2022-12-04T05:22:31.497Z,94915.03
2022-12-04T05:24:59.825Z,94918.03
2022-12-04T05:27:29.069Z,94909.19
2022-12-04T05:29:58.440Z,94920.88
2022-12-04T05:32:27.742Z,94925.56
2022-12-04T05:34:57.582Z,94928.94
2022-12-04T05:37:26.417Z,94923.53
2022-12-04T05:39:54.809Z,94929.84
2022-12-04T05:42:22.725Z,94936.41
2022-12-04T05:44:51.008Z,94945.88
2022-12-04T05:47:18.862Z,94940.38
2022-12-04T05:49:46.520Z,94939.63
2022-12-04T05:52:15.704Z,94924.09
2022-12-04T05:54:43.395Z,94918.19
2022-12-04T05:57:14.326Z,94917.44
2022-12-04T05:59:41.988Z,94916.41
2022-12-04T06:02:09.714Z,94919.16
2022-12-04T06:04:38.454Z,94923.22
2022-12-04T06:07:06.834Z,94905.56
2022-12-04T06:09:35.921Z,94910.00
2022-12-04T06:12:05.153Z,94906.63
2022-12-04T06:14:39.311Z,94902.09
2022-12-04T06:17:07.953Z,94913.91
2022-12-04T06:19:35.811Z,94909.22
2022-12-04T06:22:03.500Z,94916.13
2022-12-04T06:24:31.388Z,94925.56
2022-12-04T06:29:48.900Z,94925.41
2022-12-04T06:32:21.528Z,94924.28
2022-12-04T06:34:52.569Z,94915.44
2022-12-04T06:37:24.864Z,94922.06
2022-12-04T06:39:52.746Z,94922.31
2022-12-04T06:42:21.960Z,94925.97
2022-12-04T06:44:50.555Z,94927.19
2022-12-04T06:47:18.787Z,94920.69
2022-12-04T06:49:52.633Z,94925.66
2022-12-04T06:52:20.466Z,94914.41
2022-12-04T06:54:48.145Z,94908.34
2022-12-04T06:57:15.881Z,94910.53
2022-12-04T06:59:45.022Z,94915.69
2022-12-04T07:02:13.317Z,94932.31
2022-12-04T07:04:41.732Z,94926.63
2022-12-04T07:07:09.844Z,94944.03
2022-12-04T07:09:37.889Z,94935.41
2022-12-04T07:12:06.262Z,94926.81
2022-12-04T07:14:34.009Z,94913.00
2022-12-04T07:17:05.689Z,94927.84
2022-12-04T07:19:33.482Z,94921.94
2022-12-04T07:22:01.219Z,94922.19
2022-12-04T07:24:28.958Z,94933.53
2022-12-04T07:26:56.623Z,94937.25
2022-12-04T07:29:24.349Z,94931.09
2022-12-04T07:31:52.069Z,94934.25
2022-12-04T07:34:21.206Z,94938.31
2022-12-04T07:36:48.988Z,94938.88
2022-12-04T07:39:16.788Z,94948.47
2022-12-04T07:41:44.470Z,94945.66
2022-12-04T07:44:12.285Z,94922.03
2022-12-04T07:46:42.645Z,94934.75
2022-12-04T07:49:12.799Z,94934.66
2022-12-04T07:51:41.935Z,94931.63
2022-12-04T07:54:09.889Z,94940.31
2022-12-04T07:56:37.631Z,94945.75
2022-12-04T07:59:05.321Z,94931.13
2022-12-04T08:01:33.634Z,94929.06
2022-12-04T08:04:04.631Z,94934.16
2022-12-04T08:06:35.323Z,94938.47
2022-12-04T08:09:09.475Z,94936.94
2022-12-04T08:11:37.666Z,94930.44
2022-12-04T08:14:08.760Z,94921.25
2022-12-04T08:16:36.567Z,94929.25
2022-12-04T08:19:04.583Z,94926.66
2022-12-04T08:21:33.988Z,94922.53
2022-12-04T08:24:02.237Z,94935.13
2022-12-04T08:26:33.641Z,94920.19
2022-12-04T08:29:02.712Z,94930.06
2022-12-04T08:31:32.876Z,94938.63
2022-12-04T08:34:02.694Z,94919.63
2022-12-04T08:36:30.460Z,94939.75
2022-12-04T08:38:59.297Z,94942.91
2022-12-04T08:41:28.252Z,94953.38
2022-12-04T08:43:57.948Z,94949.25
2022-12-04T08:46:28.106Z,94954.28
2022-12-04T08:48:56.591Z,94943.19
2022-12-04T08:51:26.319Z,94941.38
2022-12-04T08:53:55.922Z,94934.09
2022-12-04T08:56:24.596Z,94941.72
2022-12-04T08:58:58.339Z,94934.19
2022-12-04T09:01:30.558Z,94928.03
2022-12-04T09:03:59.250Z,94938.09
2022-12-04T09:06:27.211Z,94927.53
2022-12-04T09:08:55.727Z,94938.78
2022-12-04T09:11:25.660Z,94930.19
2022-12-04T09:13:54.049Z,94959.59
2022-12-04T09:16:26.053Z,94958.19
2022-12-04T09:18:54.861Z,94949.03
2022-12-04T09:21:23.967Z,94957.44
2022-12-04T09:23:52.425Z,94954.84
2022-12-04T09:26:24.101Z,94944.25
2022-12-04T09:28:52.603Z,94940.75
2022-12-04T09:31:21.609Z,94937.84
2022-12-04T09:33:51.511Z,94902.78
2022-12-04T09:36:19.666Z,94898.88
2022-12-04T09:38:49.181Z,94905.03
2022-12-04T09:41:29.435Z,94893.78
2022-12-04T09:44:02.343Z,94902.31
2022-12-04T09:46:35.216Z,94880.84
2022-12-04T09:49:08.165Z,94886.94
2022-12-04T09:51:38.529Z,94921.56
2022-12-04T09:54:14.128Z,94917.22
2022-12-04T09:56:44.605Z,94919.81
2022-12-04T09:59:16.032Z,94924.03
2022-12-04T10:01:47.515Z,94915.91
2022-12-04T10:04:17.259Z,94898.66
2022-12-04T10:06:50.854Z,94886.47
2022-12-04T10:09:25.764Z,94875.66
2022-12-04T10:12:00.932Z,94858.63
2022-12-04T10:14:47.429Z,94852.59
2022-12-04T10:17:32.689Z,94857.56
2022-12-04T10:20:12.112Z,94838.50
2022-12-04T10:22:47.670Z,94851.41
2022-12-04T10:25:18.124Z,94882.03
2022-12-04T10:27:52.398Z,94871.97
2022-12-04T10:30:22.486Z,94872.16
2022-12-04T10:32:56.400Z,94842.69
2022-12-04T10:35:29.405Z,94845.44
2022-12-04T10:38:00.611Z,94845.66
2022-12-04T10:40:33.644Z,94835.72
2022-12-04T10:43:07.579Z,94837.31
2022-12-04T10:45:35.458Z,94836.50
2022-12-04T10:48:03.234Z,94823.13
2022-12-04T10:50:33.104Z,94812.97
2022-12-04T10:53:00.872Z,94814.59
2022-12-04T10:55:30.552Z,94824.09
2022-12-04T10:57:58.408Z,94823.50
2022-12-04T11:00:29.775Z,94810.84
2022-12-04T11:03:00.217Z,94803.06
2022-12-04T11:05:32.632Z,94795.06
2022-12-04T11:08:05.846Z,94812.38
2022-12-04T11:10:36.868Z,94819.13
2022-12-04T11:13:07.441Z,94821.13
2022-12-04T11:15:37.434Z,94806.91
2022-12-04T11:18:09.636Z,94817.41
2022-12-04T11:20:37.502Z,94833.72
2022-12-04T11:23:06.749Z,94847.91
2022-12-04T11:25:39.468Z,94851.28
2022-12-04T11:28:22.537Z,94854.09
2022-12-04T11:31:00.771Z,94840.75
2022-12-04T11:33:33.875Z,94836.66
2022-12-04T11:36:04.496Z,94825.34
2022-12-04T11:38:36.158Z,94831.56
2022-12-04T11:41:06.598Z,94830.59
2022-12-04T11:43:37.843Z,94822.31
2022-12-04T11:46:07.656Z,94824.22
2022-12-04T11:48:44.053Z,94823.50
2022-12-04T11:51:19.927Z,94817.81
2022-12-04T11:53:55.687Z,94817.75
2022-12-04T11:56:30.230Z,94809.16
2022-12-04T11:59:22.297Z,94801.13
2022-12-04T12:01:58.758Z,94803.19
2022-12-04T12:04:56.861Z,94800.19
2022-12-04T12:07:36.378Z,94787.63
2022-12-04T12:10:13.028Z,94786.44
2022-12-04T12:12:54.735Z,94794.16
2022-12-04T12:15:30.976Z,94789.91
2022-12-04T12:18:16.451Z,94789.66
2022-12-04T12:20:58.053Z,94785.91
2022-12-04T12:23:42.883Z,94786.47
2022-12-04T12:26:14.466Z,94782.81
2022-12-04T12:29:01.814Z,94773.63
2022-12-04T12:31:44.105Z,94764.78
2022-12-04T12:34:16.174Z,94765.94
2022-12-04T12:36:48.330Z,94775.88
2022-12-04T12:39:24.223Z,94783.19
2022-12-04T12:41:56.547Z,94761.66
2022-12-04T12:44:31.919Z,94766.97
2022-12-04T12:47:03.279Z,94767.09
2022-12-04T12:49:37.424Z,94772.84
2022-12-04T12:52:12.741Z,94778.19
2022-12-04T12:54:45.027Z,94774.00
2022-12-04T12:57:29.324Z,94758.63
2022-12-04T13:00:01.139Z,94759.19
2022-12-04T13:02:30.816Z,94759.94
2022-12-04T13:05:05.386Z,94759.44
2022-12-04T13:07:44.942Z,94741.19
2022-12-04T13:10:18.180Z,94740.63
2022-12-04T13:12:53.381Z,94731.56
2022-12-04T13:15:25.084Z,94741.34
2022-12-04T13:17:57.497Z,94751.25
2022-12-04T13:20:29.636Z,94744.22
2022-12-04T13:23:15.601Z,94761.47
2022-12-04T13:25:49.046Z,94757.13
2022-12-04T13:28:29.574Z,94760.84
2022-12-04T13:31:07.357Z,94761.34
2022-12-04T13:33:53.179Z,94774.00
2022-12-04T13:37:01.277Z,94765.34
2022-12-04T13:39:52.255Z,94768.06
2022-12-04T13:42:25.185Z,94774.19
2022-12-04T13:45:00.220Z,94768.84
2022-12-04T13:47:33.286Z,94761.88
2022-12-04T13:50:10.692Z,94760.53
2022-12-04T13:52:41.104Z,94763.72
2022-12-04T13:55:24.806Z,94768.78
2022-12-04T13:57:57.020Z,94761.81
2022-12-04T14:00:30.701Z,94762.25
2022-12-04T14:03:01.182Z,94760.69
2022-12-04T14:05:32.235Z,94763.91
2022-12-04T14:08:08.036Z,94748.91
2022-12-04T14:10:39.887Z,94757.09
2022-12-04T14:13:18.214Z,94757.44
2022-12-04T14:15:47.574Z,94748.84
2022-12-04T14:18:25.794Z,94754.47
2022-12-04T14:21:00.980Z,94759.38
2022-12-04T14:23:36.154Z,94757.75
2022-12-04T14:26:05.298Z,94776.81
2022-12-04T14:28:42.655Z,94787.00
2022-12-04T14:31:31.468Z,94773.78
2022-12-04T14:34:02.527Z,94769.78
2022-12-04T14:36:34.490Z,94771.16
2022-12-04T14:39:13.399Z,94773.56
2022-12-04T14:41:42.195Z,94772.22
2022-12-04T14:44:24.019Z,94763.88
2022-12-04T14:46:56.295Z,94762.56
2022-12-04T14:49:39.605Z,94753.16
2022-12-04T14:52:14.899Z,94769.28
2022-12-04T14:54:52.417Z,94746.69
2022-12-04T14:57:35.132Z,94748.91
2022-12-04T15:00:05.556Z,94759.38
2022-12-04T15:02:41.292Z,94761.78
2022-12-04T15:05:11.020Z,94774.63
2022-12-04T15:07:48.387Z,94786.09
2022-12-04T15:10:38.517Z,94790.09
2022-12-04T15:13:06.235Z,94792.94
2022-12-04T15:15:33.987Z,94789.16
2022-12-04T15:18:11.361Z,94778.44
2022-12-04T15:20:46.219Z,94776.50
2022-12-04T15:23:16.735Z,94794.72
2022-12-04T15:25:46.780Z,94800.84
2022-12-04T15:28:19.471Z,94799.72
2022-12-04T15:30:49.783Z,94805.25
2022-12-04T15:33:23.144Z,94814.41
2022-12-04T15:35:54.889Z,94814.41
2022-12-04T15:38:22.879Z,94812.25
2022-12-04T15:40:53.441Z,94821.91
2022-12-04T15:43:28.591Z,94827.25
2022-12-04T15:45:57.265Z,94826.44
2022-12-04T15:48:28.425Z,94821.03
2022-12-04T15:50:58.243Z,94829.50
2022-12-04T15:53:29.097Z,94829.44
2022-12-04T15:56:00.464Z,94833.81
2022-12-04T15:58:30.646Z,94837.53
2022-12-04T16:01:01.112Z,94846.56
2022-12-04T16:03:32.184Z,94853.66
2022-12-04T16:06:04.944Z,94860.88
2022-12-04T16:08:34.829Z,94852.09
2022-12-04T16:11:05.761Z,94855.31
2022-12-04T16:13:35.619Z,94840.84
2022-12-04T16:16:07.329Z,94850.44
2022-12-04T16:18:36.635Z,94861.63
2022-12-04T16:21:04.508Z,94851.59
2022-12-04T16:23:33.267Z,94849.88
2022-12-04T16:26:01.181Z,94862.44
2022-12-04T16:28:29.154Z,94850.38
2022-12-04T16:30:57.152Z,94848.00
2022-12-04T16:33:25.403Z,94851.19
2022-12-04T16:35:54.871Z,94858.72
2022-12-04T16:38:23.712Z,94859.03
2022-12-04T16:40:51.692Z,94853.91
2022-12-04T16:43:19.588Z,94854.97
2022-12-04T16:45:49.998Z,94871.59
2022-12-04T16:48:18.112Z,94866.53
2022-12-04T16:50:46.917Z,94865.44
2022-12-04T16:53:18.380Z,94863.81
2022-12-04T16:55:47.846Z,94869.72
2022-12-04T16:58:16.041Z,94859.59
2022-12-04T17:00:46.015Z,94861.38
2022-12-04T17:03:21.056Z,94857.41
2022-12-04T17:05:48.819Z,94868.91
2022-12-04T17:08:17.931Z,94868.91
2022-12-04T17:10:45.763Z,94851.56
2022-12-04T17:13:13.519Z,94857.16
2022-12-04T17:15:41.215Z,94854.91
2022-12-04T17:18:12.931Z,94858.97
2022-12-04T17:20:43.783Z,94870.41
2022-12-04T17:23:12.953Z,94865.88
2022-12-04T17:25:42.072Z,94875.81
2022-12-04T17:28:09.802Z,94868.69
2022-12-04T17:30:37.510Z,94867.66
2022-12-04T17:33:05.575Z,94867.88
2022-12-04T17:35:37.898Z,94867.78
2022-12-04T17:38:06.464Z,94865.69
2022-12-04T17:40:34.350Z,94863.81
2022-12-04T17:43:03.408Z,94864.94
2022-12-04T17:45:31.290Z,94864.47
2022-12-04T17:48:00.959Z,94881.69
2022-12-04T17:50:28.700Z,94886.16
2022-12-04T17:52:56.370Z,94883.16
2022-12-04T17:55:24.063Z,94887.13
2022-12-04T17:57:51.729Z,94885.59
2022-12-04T18:00:21.052Z,94882.59
2022-12-04T18:02:53.009Z,94882.59
2022-12-04T18:05:21.198Z,94887.22
2022-12-04T18:07:48.913Z,94888.91
2022-12-04T18:10:19.264Z,94884.78
2022-12-04T18:12:47.347Z,94885.28
2022-12-04T18:15:15.063Z,94883.63
2022-12-04T18:17:47.062Z,94900.22
2022-12-04T18:20:14.775Z,94897.34
2022-12-04T18:22:42.472Z,94901.91
2022-12-04T18:25:10.991Z,94910.75
2022-12-04T18:27:41.818Z,94907.47
2022-12-04T18:30:11.962Z,94903.50
2022-12-04T18:32:39.682Z,94897.66
2022-12-04T18:35:09.629Z,94891.81
2022-12-04T18:37:37.363Z,94897.19
2022-12-04T18:40:07.216Z,94901.47
2022-12-04T18:42:38.088Z,94888.59
2022-12-04T18:45:06.997Z,94898.47
2022-12-04T18:47:43.610Z,94890.59
2022-12-04T18:50:13.512Z,94891.66
2022-12-04T18:52:41.559Z,94899.44
2022-12-04T18:57:57.192Z,94900.22
2022-12-04T19:00:24.892Z,94905.09
2022-12-04T19:02:52.668Z,94899.28
2022-12-04T19:05:21.842Z,94899.59
2022-12-04T19:07:50.358Z,94895.31
2022-12-04T19:10:18.150Z,94901.16
2022-12-04T19:12:45.814Z,94910.25
2022-12-04T19:15:13.613Z,94910.75
2022-12-04T19:17:44.424Z,94895.94
2022-12-04T19:20:12.749Z,94897.56
2022-12-04T19:22:41.829Z,94901.78
2022-12-04T19:25:10.220Z,94909.06
2022-12-04T19:27:37.964Z,94915.72
2022-12-04T19:30:07.081Z,94919.41
2022-12-04T19:32:34.920Z,94912.16
2022-12-04T19:35:02.709Z,94916.16
2022-12-04T19:37:30.435Z,94917.16
2022-12-04T19:39:59.936Z,94925.44
2022-12-04T19:42:33.050Z,94936.19
2022-12-04T19:45:00.811Z,94939.19
2022-12-04T19:47:28.551Z,94947.69
2022-12-04T19:49:59.171Z,94950.38
2022-12-04T19:52:27.136Z,94953.31
2022-12-04T19:54:56.078Z,94958.13
2022-12-04T19:57:25.349Z,94954.31
2022-12-04T19:59:53.443Z,94964.94
2022-12-04T20:02:21.196Z,94966.78
2022-12-04T20:04:49.003Z,94974.34
2022-12-04T20:07:16.952Z,94971.25
2022-12-04T20:09:51.934Z,94975.81
2022-12-04T20:12:20.212Z,94985.41
2022-12-04T20:14:49.735Z,94981.88
2022-12-04T20:17:17.876Z,94993.97
2022-12-04T20:19:46.309Z,94987.72
2022-12-04T20:22:14.428Z,94988.53
2022-12-04T20:24:43.077Z,94995.50
2022-12-04T20:27:10.996Z,94992.84
2022-12-04T20:29:39.010Z,95004.59
2022-12-04T20:32:08.472Z,95011.31
2022-12-04T20:34:43.065Z,95014.31
2022-12-04T20:37:11.897Z,95015.19
2022-12-04T20:39:40.296Z,95013.88
2022-12-04T20:42:08.142Z,95013.66
2022-12-04T20:44:36.244Z,95009.69
2022-12-04T20:47:04.026Z,95009.84
2022-12-04T20:49:35.389Z,95015.13
2022-12-04T20:52:03.856Z,95017.81
2022-12-04T20:54:35.367Z,95026.31
2022-12-04T20:57:08.075Z,95026.91
2022-12-04T20:59:36.778Z,95028.25
2022-12-04T21:02:07.521Z,95025.03
2022-12-04T21:04:39.682Z,95022.75
2022-12-04T21:07:07.988Z,95023.00
2022-12-04T21:09:36.104Z,95023.31
2022-12-04T21:12:28.547Z,95019.50
2022-12-04T21:15:14.504Z,95027.63
2022-12-04T21:17:43.411Z,95025.09
2022-12-04T21:20:15.021Z,95028.25
2022-12-04T21:22:43.486Z,95022.91
2022-12-04T21:25:12.454Z,95027.72
2022-12-04T21:27:40.648Z,95018.06
2022-12-04T21:30:09.997Z,95016.94
2022-12-04T21:32:37.950Z,95015.31
2022-12-04T21:35:06.351Z,95017.88
2022-12-04T21:37:36.228Z,95016.03
2022-12-04T21:40:04.683Z,95020.09
2022-12-04T21:42:31.439Z,95021.00
2022-12-04T21:44:59.614Z,95022.03
2022-12-04T21:47:27.867Z,95028.94
2022-12-04T21:49:56.213Z,95024.47
2022-12-04T21:52:24.373Z,95021.00
2022-12-04T21:54:58.025Z,95031.13
2022-12-04T21:57:26.128Z,95013.94
2022-12-04T21:59:54.188Z,95022.66
2022-12-04T22:02:23.995Z,95023.97
2022-12-04T22:04:51.776Z,95029.59
2022-12-04T22:07:19.536Z,95043.25
2022-12-04T22:09:47.265Z,95054.63
2022-12-04T22:15:04.357Z,95066.94
2022-12-04T22:17:32.141Z,95065.47
2022-12-04T22:20:00.055Z,95057.16
2022-12-04T22:22:27.839Z,95077.25
2022-12-04T22:24:55.539Z,95076.13
2022-12-04T22:27:24.616Z,95075.63
2022-12-04T22:29:52.424Z,95082.19
2022-12-04T22:32:20.743Z,95077.41
2022-12-04T22:34:49.421Z,95086.88
2022-12-04T22:37:17.699Z,95094.44
2022-12-04T22:39:45.449Z,95100.03
2022-12-04T22:42:13.379Z,95097.28
2022-12-04T22:44:42.662Z,95093.72
2022-12-04T22:47:10.503Z,95093.06
2022-12-04T22:49:38.312Z,95095.66
2022-12-04T22:52:06.368Z,95095.44
2022-12-04T22:54:34.139Z,95096.78
2022-12-04T23:03:28.665Z,95107.47
2022-12-04T23:05:56.576Z,95092.16
2022-12-04T23:08:24.301Z,95094.16
2022-12-04T23:10:52.055Z,95101.06
2022-12-04T23:13:21.653Z,95109.56
2022-12-04T23:15:50.495Z,95101.63
2022-12-04T23:18:18.241Z,95096.28
2022-12-04T23:20:47.338Z,95086.31
2022-12-04T23:23:15.080Z,95081.53
2022-12-04T23:25:42.740Z,95080.06
2022-12-04T23:28:10.502Z,95090.59
2022-12-04T23:30:38.182Z,95092.47
2022-12-04T23:33:05.888Z,95102.75
2022-12-04T23:35:35.494Z,95109.50
2022-12-04T23:38:04.617Z,95104.56
2022-12-04T23:40:32.278Z,95111.28
2022-12-04T23:43:00.065Z,95110.38
2022-12-04T23:45:27.752Z,95114.09
2022-12-04T23:47:55.863Z,95109.50
2022-12-04T23:50:25.207Z,95114.19
2022-12-04T23:52:52.914Z,95116.84
2022-12-04T23:55:22.048Z,95114.41
2022-12-04T23:57:49.809Z,95111.16
